Time;durP1;ratioP1;P1;durP2;ratioP2;P2;SDS_P1;SDS_P2;PMS_P1;PMS_P2;Temp;Humidity;BMP_temperature;BMP_pressure;BME280_temperature;BME280_humidity;BME280_pressure;Samples;Min_cycle;Max_cycle;Signal;HPM_P1;HPM_P2
2023/06/01 00:00:09;;;;;;;15.40;9.20;;;;;;;11.73;100.00;101601.78;5070241;28;20036;-76
2023/06/01 00:02:37;;;;;;;11.85;8.68;;;;;;;11.65;100.00;101600.59;5092177;28;20024;-77
2023/06/01 00:05:02;;;;;;;13.68;9.05;;;;;;;11.63;100.00;101599.88;5090206;28;20488;-77
2023/06/01 00:07:29;;;;;;;12.15;8.63;;;;;;;11.59;100.00;101611.69;5091688;28;20784;-77
2023/06/01 00:09:55;;;;;;;11.27;9.32;;;;;;;11.53;100.00;101606.88;5090040;28;20078;-77
2023/06/01 00:12:21;;;;;;;19.75;8.68;;;;;;;11.59;100.00;101617.00;5091928;28;20032;-76
2023/06/01 00:14:47;;;;;;;15.68;9.02;;;;;;;11.64;100.00;101620.09;5092436;28;20039;-77
2023/06/01 00:17:13;;;;;;;14.80;9.75;;;;;;;11.74;100.00;101616.69;5075979;28;20038;-77
2023/06/01 00:19:38;;;;;;;10.77;8.05;;;;;;;11.75;100.00;101621.88;5068626;28;20055;-77
2023/06/01 00:22:06;;;;;;;11.02;9.10;;;;;;;11.79;100.00;101620.69;5058501;28;20066;-77
2023/06/01 00:24:33;;;;;;;12.00;8.32;;;;;;;11.93;100.00;101626.66;5051149;28;20147;-77
2023/06/01 00:26:59;;;;;;;13.13;8.68;;;;;;;12.01;100.00;101620.75;5055696;28;20034;-77
2023/06/01 00:29:25;;;;;;;9.80;8.73;;;;;;;12.05;100.00;101619.53;5069188;28;20466;-77
2023/06/01 00:31:51;;;;;;;12.35;9.07;;;;;;;12.09;100.00;101626.28;5052939;28;20039;-77
2023/06/01 00:34:19;;;;;;;9.32;8.32;;;;;;;12.06;100.00;101625.66;5067562;28;20032;-79
2023/06/01 00:36:45;;;;;;;16.90;8.77;;;;;;;12.02;100.00;101625.09;5056421;28;20043;-80
2023/06/01 00:39:10;;;;;;;12.82;9.35;;;;;;;12.00;100.00;101622.56;5041953;28;20038;-80
2023/06/01 00:41:36;;;;;;;12.27;9.07;;;;;;;11.99;100.00;101626.16;5054646;28;20021;-80
2023/06/01 00:44:02;;;;;;;13.40;10.02;;;;;;;12.04;100.00;101633.75;5048899;28;20044;-80
2023/06/01 00:46:30;;;;;;;17.80;10.00;;;;;;;12.11;100.00;101624.38;5078006;28;20032;-80
2023/06/01 00:48:57;;;;;;;15.13;10.02;;;;;;;12.09;100.00;101626.28;5053282;28;20059;-79
2023/06/01 00:51:23;;;;;;;16.15;9.93;;;;;;;12.08;100.00;101629.06;5060060;28;20561;-77
2023/06/01 00:53:49;;;;;;;16.25;10.35;;;;;;;12.02;100.00;101623.25;5050965;28;20039;-77
2023/06/01 00:56:17;;;;;;;12.70;9.80;;;;;;;12.09;100.00;101625.47;5057051;28;20585;-77
2023/06/01 00:58:44;;;;;;;17.98;10.10;;;;;;;12.07;100.00;101625.53;4994330;28;20450;-77
2023/06/01 01:01:18;;;;;;;18.65;9.80;;;;;;;12.12;100.00;101620.75;5037729;28;20458;-77
2023/06/01 01:03:47;;;;;;;21.10;9.38;;;;;;;12.22;100.00;101620.84;5055537;28;20253;-77
2023/06/01 01:06:33;;;;;;;14.80;9.13;;;;;;;12.27;100.00;101621.31;5091243;28;20081;-77
2023/06/01 01:09:37;;;;;;;14.48;9.15;;;;;;;12.27;100.00;101623.09;5053203;28;20044;-77
2023/06/01 01:12:17;;;;;;;11.80;8.07;;;;;;;12.30;100.00;101617.56;5038224;28;20048;-80
2023/06/01 01:14:52;;;;;;;16.15;9.90;;;;;;;12.24;100.00;101616.25;5044736;28;20754;-80
2023/06/01 01:17:32;;;;;;;14.88;9.88;;;;;;;12.26;100.00;101614.31;5046779;28;20028;-80
2023/06/01 01:20:08;;;;;;;14.90;9.52;;;;;;;12.19;100.00;101612.28;5084291;28;20046;-77
2023/06/01 01:22:43;;;;;;;13.35;10.10;;;;;;;12.07;100.00;101612.28;5091700;28;20032;-77
2023/06/01 01:25:35;;;;;;;15.30;10.23;;;;;;;11.96;100.00;101607.88;5089739;28;20086;-77
2023/06/01 01:28:25;;;;;;;13.30;9.93;;;;;;;11.86;100.00;101609.59;5075029;28;20036;-77
2023/06/01 01:30:55;;;;;;;17.13;10.77;;;;;;;11.81;100.00;101607.31;5047004;28;20115;-77
2023/06/01 01:33:21;;;;;;;19.13;11.85;;;;;;;11.77;100.00;101601.41;5057336;28;20035;-77
2023/06/01 01:35:50;;;;;;;20.60;12.65;;;;;;;11.73;100.00;101607.09;5056573;28;20093;-77
2023/06/01 01:38:16;;;;;;;21.77;12.30;;;;;;;11.65;100.00;101599.75;5067330;28;20102;-76
2023/06/01 01:40:42;;;;;;;22.50;13.23;;;;;;;11.64;100.00;101592.78;5053255;28;20044;-79
2023/06/01 01:43:08;;;;;;;23.73;13.50;;;;;;;11.64;100.00;101590.97;5070423;28;20035;-80
2023/06/01 01:45:34;;;;;;;24.55;12.43;;;;;;;11.68;100.00;101580.97;5091037;28;20043;-77
2023/06/01 01:48:11;;;;;;;24.92;12.98;;;;;;;11.72;100.00;101585.03;5071214;28;20118;-76
2023/06/01 01:50:46;;;;;;;19.63;10.80;;;;;;;11.74;100.00;101582.28;5050372;28;20074;-77
2023/06/01 01:53:12;;;;;;;17.90;11.95;;;;;;;11.74;100.00;101585.78;5064659;28;20032;-77
2023/06/01 01:55:39;;;;;;;17.70;11.30;;;;;;;11.75;100.00;101583.97;5090677;28;20040;-76
2023/06/01 01:58:05;;;;;;;15.77;10.02;;;;;;;11.79;100.00;101586.25;5042536;28;20077;-77
2023/06/01 02:00:31;;;;;;;16.83;11.23;;;;;;;11.77;100.00;101588.16;5055527;28;20035;-77
2023/06/01 02:02:59;;;;;;;15.80;10.57;;;;;;;11.77;100.00;101580.22;5054913;28;20028;-77
2023/06/01 02:05:24;;;;;;;18.77;11.73;;;;;;;11.77;100.00;101576.72;5071252;28;20410;-80
2023/06/01 02:07:50;;;;;;;14.20;10.90;;;;;;;11.81;100.00;101582.63;5053018;28;20078;-79
2023/06/01 02:10:17;;;;;;;19.63;11.93;;;;;;;11.79;100.00;101575.66;5051233;28;20418;-77
2023/06/01 02:12:43;;;;;;;20.13;11.82;;;;;;;11.77;100.00;101574.06;5059939;28;20055;-77
2023/06/01 02:15:09;;;;;;;19.25;12.13;;;;;;;11.68;100.00;101572.16;5071310;28;20074;-80
2023/06/01 02:17:37;;;;;;;17.17;11.73;;;;;;;11.60;100.00;101565.69;5052300;28;20043;-78
2023/06/01 02:20:03;;;;;;;18.67;12.40;;;;;;;11.47;100.00;101575.56;5093837;28;20031;-79
2023/06/01 02:22:30;;;;;;;17.40;10.90;;;;;;;11.31;100.00;101575.97;5077612;28;20524;-80
2023/06/01 02:24:55;;;;;;;17.52;12.23;;;;;;;11.19;100.00;101570.69;5078855;28;20110;-79
2023/06/01 02:27:23;;;;;;;20.27;12.40;;;;;;;11.09;100.00;101567.06;5066741;28;20671;-80
2023/06/01 02:29:49;;;;;;;18.52;12.07;;;;;;;10.96;100.00;101567.19;5084291;28;20404;-77
2023/06/01 02:32:15;;;;;;;19.75;13.30;;;;;;;10.86;100.00;101567.06;5078570;28;20032;-77
2023/06/01 02:34:41;;;;;;;18.35;12.10;;;;;;;10.77;100.00;101568.59;5072551;28;20028;-77
2023/06/01 02:37:06;;;;;;;20.88;13.32;;;;;;;10.78;100.00;101570.28;5073718;28;20477;-77
2023/06/01 02:39:32;;;;;;;21.88;12.23;;;;;;;10.82;100.00;101566.44;5082914;28;20521;-79
2023/06/01 02:41:58;;;;;;;19.88;13.75;;;;;;;10.82;100.00;101561.16;5072450;28;20028;-80
2023/06/01 02:44:24;;;;;;;19.73;13.38;;;;;;;10.88;100.00;101567.75;5075209;28;20031;-80
2023/06/01 02:46:50;;;;;;;15.88;12.35;;;;;;;10.96;100.00;101556.59;5054629;28;20043;-79
2023/06/01 02:49:17;;;;;;;22.20;13.15;;;;;;;10.94;100.00;101556.69;5073143;28;20051;-77
2023/06/01 02:51:43;;;;;;;17.67;13.20;;;;;;;10.96;100.00;101548.66;5057579;28;20027;-77
2023/06/01 02:54:18;;;;;;;20.42;13.13;;;;;;;10.91;100.00;101549.84;5059535;28;20118;-78
2023/06/01 02:56:43;;;;;;;21.02;13.07;;;;;;;10.83;100.00;101538.19;5070469;28;20039;-77
2023/06/01 02:59:29;;;;;;;37.05;14.60;;;;;;;10.72;100.00;101539.03;5092088;28;20047;-77
2023/06/01 03:02:00;;;;;;;30.75;14.20;;;;;;;10.64;100.00;101537.78;5074202;28;20066;-77
2023/06/01 03:04:28;;;;;;;19.98;14.43;;;;;;;10.60;100.00;101535.50;5070438;28;20032;-77
2023/06/01 03:06:57;;;;;;;20.42;13.25;;;;;;;10.54;100.00;101528.91;4998074;28;20358;-77
2023/06/01 03:09:32;;;;;;;31.33;14.02;;;;;;;10.57;100.00;101535.75;5073096;28;20040;-77
2023/06/01 03:12:21;;;;;;;20.45;13.32;;;;;;;10.68;100.00;101530.47;5054799;28;20398;-77
2023/06/01 03:14:47;;;;;;;21.65;13.80;;;;;;;10.75;100.00;101521.09;5069986;28;20079;-77
2023/06/01 03:17:13;;;;;;;29.35;14.68;;;;;;;10.81;100.00;101526.88;5054252;28;20123;-77
2023/06/01 03:19:39;;;;;;;24.45;14.82;;;;;;;10.80;100.00;101523.38;5057253;28;20043;-77
2023/06/01 03:22:20;;;;;;;23.50;14.00;;;;;;;10.84;100.00;101522.22;5074035;28;20035;-76
2023/06/01 03:24:49;;;;;;;30.80;14.50;;;;;;;10.85;100.00;101521.25;5085547;28;20520;-77
2023/06/01 03:27:16;;;;;;;19.70;13.35;;;;;;;10.90;100.00;101524.38;5069905;28;20028;-76
2023/06/01 03:29:42;;;;;;;18.52;13.45;;;;;;;10.91;100.00;101523.41;5084545;28;20038;-79
2023/06/01 03:32:09;;;;;;;22.92;15.57;;;;;;;10.90;100.00;101518.22;5067998;28;20032;-80
2023/06/01 03:34:36;;;;;;;23.38;13.73;;;;;;;10.90;100.00;101518.22;5080437;28;20123;-77
2023/06/01 03:37:04;;;;;;;20.02;13.82;;;;;;;10.94;100.00;101519.66;5069159;28;20556;-77
2023/06/01 03:39:33;;;;;;;20.65;13.60;;;;;;;10.97;100.00;101521.25;5079395;28;20508;-76
2023/06/01 03:42:00;;;;;;;24.13;13.90;;;;;;;10.98;100.00;101512.34;5079571;28;20085;-76
2023/06/01 03:44:26;;;;;;;21.02;13.52;;;;;;;10.97;100.00;101511.50;5076443;28;20035;-77
2023/06/01 03:46:52;;;;;;;21.90;14.82;;;;;;;10.96;100.00;101515.09;5094153;28;20039;-77
2023/06/01 03:49:18;;;;;;;22.58;14.65;;;;;;;10.99;100.00;101519.34;5089084;28;20046;-79
2023/06/01 03:51:44;;;;;;;20.95;14.55;;;;;;;11.02;100.00;101513.78;5057661;28;20032;-80
2023/06/01 03:54:11;;;;;;;18.35;14.10;;;;;;;11.04;100.00;101517.16;5078981;28;20042;-80
2023/06/01 03:56:39;;;;;;;27.83;14.70;;;;;;;11.01;100.00;101520.03;5078537;28;20477;-77
2023/06/01 03:59:07;;;;;;;24.20;14.80;;;;;;;10.92;100.00;101516.31;5064644;28;20496;-77
2023/06/01 04:01:33;;;;;;;24.30;14.75;;;;;;;10.84;100.00;101524.00;5077823;28;20481;-77
2023/06/01 04:03:59;;;;;;;22.27;14.40;;;;;;;10.76;100.00;101516.66;5077208;28;20074;-77
2023/06/01 04:06:29;;;;;;;25.48;14.80;;;;;;;10.75;100.00;101523.75;5083482;28;20135;-80
2023/06/01 04:08:58;;;;;;;23.70;14.95;;;;;;;10.74;100.00;101523.88;5076968;28;20473;-79
2023/06/01 04:11:24;;;;;;;24.45;15.80;;;;;;;10.74;100.00;101523.88;5061459;28;20039;-77
2023/06/01 04:13:51;;;;;;;19.98;14.13;;;;;;;10.79;100.00;101533.16;5090481;28;20056;-77
2023/06/01 04:16:17;;;;;;;20.95;13.73;;;;;;;10.82;100.00;101536.50;5067130;28;20039;-77
2023/06/01 04:18:43;;;;;;;22.63;13.68;;;;;;;10.88;100.00;101536.88;5094225;28;20047;-77
2023/06/01 04:21:16;;;;;;;25.48;14.85;;;;;;;10.89;100.00;101530.59;5090369;28;20027;-77
2023/06/01 04:23:42;;;;;;;19.98;13.57;;;;;;;10.86;100.00;101530.03;5058943;28;20385;-76
2023/06/01 04:26:10;;;;;;;19.98;14.60;;;;;;;10.84;100.00;101531.94;5092395;28;20134;-76
2023/06/01 04:28:43;;;;;;;23.25;14.23;;;;;;;10.81;100.00;101540.09;5076183;28;20035;-76
2023/06/01 04:31:20;;;;;;;23.52;14.80;;;;;;;10.83;100.00;101535.56;5050911;28;20040;-77
2023/06/01 04:33:52;;;;;;;21.58;14.43;;;;;;;10.84;100.00;101537.22;5084564;28;20032;-77
2023/06/01 04:36:22;;;;;;;24.70;14.23;;;;;;;10.87;100.00;101537.00;5086791;28;20043;-80
2023/06/01 04:38:53;;;;;;;17.48;13.07;;;;;;;10.89;100.00;101541.19;5089284;28;20051;-80
2023/06/01 04:41:21;;;;;;;22.10;14.27;;;;;;;10.88;100.00;101541.31;5087353;28;20198;-77
2023/06/01 04:43:54;;;;;;;21.10;14.55;;;;;;;10.89;100.00;101543.81;5092752;28;20027;-76
2023/06/01 04:46:23;;;;;;;20.70;14.65;;;;;;;10.92;100.00;101542.78;5087574;28;20516;-76
2023/06/01 04:48:53;;;;;;;24.58;14.57;;;;;;;10.96;100.00;101538.91;5069238;28;20074;-77
2023/06/01 04:51:19;;;;;;;18.95;14.23;;;;;;;11.00;100.00;101536.88;5090043;28;20032;-76
2023/06/01 04:53:51;;;;;;;22.35;13.73;;;;;;;11.02;100.00;101537.59;5093966;28;20042;-77
2023/06/01 04:56:18;;;;;;;20.95;13.60;;;;;;;11.03;100.00;101537.50;5092507;28;20067;-76
2023/06/01 04:58:47;;;;;;;22.52;14.93;;;;;;;11.06;100.00;101538.19;5093641;28;20085;-77
2023/06/01 05:01:15;;;;;;;19.92;13.15;;;;;;;11.13;100.00;101537.59;5087152;28;20027;-76
2023/06/01 05:03:43;;;;;;;19.58;14.57;;;;;;;11.22;100.00;101538.69;5071105;28;20032;-76
2023/06/01 05:06:11;;;;;;;28.85;14.25;;;;;;;11.28;100.00;101538.19;5071307;28;20031;-76
2023/06/01 05:08:39;;;;;;;25.10;14.48;;;;;;;11.30;100.00;101535.41;5056408;28;20375;-76
2023/06/01 05:11:07;;;;;;;22.20;14.05;;;;;;;11.25;100.00;101540.22;5065040;28;20035;-76
2023/06/01 05:13:37;;;;;;;20.88;13.30;;;;;;;11.20;100.00;101543.25;5065213;28;20093;-77
2023/06/01 05:16:04;;;;;;;21.40;13.88;;;;;;;11.23;100.00;101548.28;5088610;28;20039;-76
2023/06/01 05:18:31;;;;;;;25.10;14.35;;;;;;;11.33;100.00;101547.56;5090879;28;20101;-76
2023/06/01 05:20:57;;;;;;;21.05;13.90;;;;;;;11.39;100.00;101547.91;5075039;28;20401;-76
2023/06/01 05:23:24;;;;;;;17.77;12.75;;;;;;;11.45;100.00;101553.69;5082260;28;20031;-76
2023/06/01 05:25:50;;;;;;;20.95;14.70;;;;;;;11.45;100.00;101553.69;5056307;28;20119;-77
2023/06/01 05:28:16;;;;;;;22.15;14.85;;;;;;;11.39;100.00;101552.34;5069150;28;20032;-76
2023/06/01 05:30:42;;;;;;;21.08;13.93;;;;;;;11.36;100.00;101553.47;5085114;28;20145;-77
2023/06/01 05:33:08;;;;;;;26.38;14.73;;;;;;;11.35;100.00;101553.59;5072920;28;20047;-77
2023/06/01 05:35:34;;;;;;;22.55;15.30;;;;;;;11.33;100.00;101551.06;5080366;28;20040;-77
2023/06/01 05:38:00;;;;;;;37.13;15.75;;;;;;;11.34;100.00;101551.91;5072761;28;20099;-77
2023/06/01 05:40:26;;;;;;;22.77;14.65;;;;;;;11.35;100.00;101549.13;5073945;28;20393;-76
2023/06/01 05:42:51;;;;;;;22.20;14.48;;;;;;;11.36;100.00;101552.59;5070655;28;20074;-77
2023/06/01 05:45:18;;;;;;;23.02;14.88;;;;;;;11.35;100.00;101549.13;5086844;28;20067;-76
2023/06/01 05:47:44;;;;;;;25.08;15.95;;;;;;;11.39;100.00;101552.34;5073140;28;20106;-76
2023/06/01 05:50:10;;;;;;;21.77;15.55;;;;;;;11.37;100.00;101555.13;5084916;28;20039;-77
2023/06/01 05:52:36;;;;;;;30.45;15.30;;;;;;;11.38;100.00;101550.69;5084383;28;20404;-76
2023/06/01 05:55:03;;;;;;;36.88;15.65;;;;;;;11.33;100.00;101553.69;5044007;28;20042;-80
2023/06/01 05:57:29;;;;;;;20.75;14.07;;;;;;;11.32;100.00;101559.97;5069015;28;20063;-80
2023/06/01 05:59:55;;;;;;;27.15;17.20;;;;;;;11.28;100.00;101558.50;5044931;28;20035;-77
2023/06/01 06:02:20;;;;;;;27.42;16.23;;;;;;;11.30;100.00;101551.31;5066868;28;20047;-77
2023/06/01 06:04:46;;;;;;;28.42;16.55;;;;;;;11.32;100.00;101561.75;5090637;28;20464;-80
2023/06/01 06:07:12;;;;;;;33.03;18.52;;;;;;;11.38;100.00;101554.19;5063499;28;20032;-80
2023/06/01 06:09:38;;;;;;;29.67;19.05;;;;;;;11.44;100.00;101560.78;5075866;28;20036;-76
2023/06/01 06:12:04;;;;;;;31.95;17.85;;;;;;;11.44;100.00;101557.28;5080513;28;20085;-76
2023/06/01 06:14:30;;;;;;;32.15;17.85;;;;;;;11.38;100.00;101554.19;5103270;28;20127;-76
2023/06/01 06:16:57;;;;;;;35.67;19.60;;;;;;;11.33;100.00;101553.69;5089789;28;20115;-77
2023/06/01 06:19:22;;;;;;;27.55;17.33;;;;;;;11.27;100.00;101562.13;5072670;28;20056;-77
2023/06/01 06:21:48;;;;;;;39.70;19.80;;;;;;;11.18;100.00;101563.69;5086589;28;20035;-76
2023/06/01 06:24:14;;;;;;;51.10;20.50;;;;;;;11.16;100.00;101563.81;5083759;28;20097;-76
2023/06/01 06:26:40;;;;;;;29.92;17.17;;;;;;;11.19;100.00;101557.44;5071259;28;20107;-80
2023/06/01 06:29:06;;;;;;;24.00;14.15;;;;;;;11.11;100.00;101558.06;5017999;28;20110;-80
2023/06/01 06:31:31;;;;;;;39.80;21.27;;;;;;;11.13;100.00;101557.94;5087995;28;20089;-76
2023/06/01 06:33:57;;;;;;;43.63;21.83;;;;;;;11.17;100.00;101567.31;5080374;28;20036;-76
2023/06/01 06:36:23;;;;;;;36.85;18.63;;;;;;;11.22;100.00;101559.84;5079824;28;20040;-76
2023/06/01 06:38:48;;;;;;;35.10;21.30;;;;;;;11.21;100.00;101554.69;5075209;28;20035;-76
2023/06/01 06:41:14;;;;;;;39.13;21.80;;;;;;;11.22;100.00;101551.91;5064580;28;20031;-80
2023/06/01 06:43:40;;;;;;;31.52;19.27;;;;;;;11.19;100.00;101561.88;5077451;28;20024;-80
2023/06/01 06:46:07;;;;;;;48.00;21.88;;;;;;;11.23;100.00;101558.88;5039294;28;20069;-76
2023/06/01 06:48:33;;;;;;;44.08;23.38;;;;;;;11.28;100.00;101561.16;5071936;28;20032;-76
2023/06/01 06:50:59;;;;;;;34.70;19.65;;;;;;;11.34;100.00;101565.16;5075514;28;20024;-76
2023/06/01 06:53:25;;;;;;;40.03;21.65;;;;;;;11.34;100.00;101552.72;5041984;28;20039;-77
2023/06/01 06:55:51;;;;;;;38.70;23.55;;;;;;;11.42;100.00;101560.06;5090821;28;20028;-77
2023/06/01 06:58:17;;;;;;;37.83;22.25;;;;;;;11.56;100.00;101564.28;5086227;28;20696;-76
2023/06/01 07:00:43;;;;;;;36.42;22.52;;;;;;;11.60;100.00;101559.56;5083956;28;20041;-77
2023/06/01 07:03:09;;;;;;;34.03;21.00;;;;;;;11.57;100.00;101550.06;5098995;28;20033;-76
2023/06/01 07:05:35;;;;;;;32.70;18.88;;;;;;;11.53;100.00;101556.56;5103478;28;20055;-77
2023/06/01 07:08:01;;;;;;;35.65;22.38;;;;;;;11.48;100.00;101558.75;5066181;28;20104;-77
2023/06/01 07:10:27;;;;;;;42.45;23.35;;;;;;;11.50;100.00;101560.28;5083133;28;20032;-77
2023/06/01 07:12:52;;;;;;;40.90;22.95;;;;;;;11.60;100.00;101552.47;5105918;28;20035;-77
2023/06/01 07:15:18;;;;;;;37.45;23.45;;;;;;;11.71;100.00;101548.09;5085577;28;20084;-77
2023/06/01 07:17:44;;;;;;;35.67;21.65;;;;;;;11.75;100.00;101555.66;5091002;28;20081;-77
2023/06/01 07:20:13;;;;;;;43.42;23.63;;;;;;;11.84;100.00;101561.19;5078614;28;20035;-78
2023/06/01 07:22:39;;;;;;;34.67;22.05;;;;;;;11.88;100.00;101552.03;5091103;28;20036;-79
2023/06/01 07:25:06;;;;;;;35.20;22.23;;;;;;;11.99;100.00;101556.44;5078808;28;20045;-77
2023/06/01 07:27:34;;;;;;;37.80;21.52;;;;;;;12.01;100.00;101552.69;5070791;28;20671;-77
2023/06/01 07:30:07;;;;;;;33.17;20.25;;;;;;;11.98;100.00;101550.31;5092611;28;20038;-77
2023/06/01 07:32:32;;;;;;;39.90;22.80;;;;;;;11.98;100.00;101552.94;5070474;28;20036;-76
2023/06/01 07:34:59;;;;;;;38.60;23.15;;;;;;;12.04;100.00;101556.88;5086505;28;20104;-77
2023/06/01 07:37:26;;;;;;;42.28;23.33;;;;;;;12.10;100.00;101569.69;5091725;28;20045;-77
2023/06/01 07:39:54;;;;;;;37.28;21.38;;;;;;;12.14;100.00;101560.50;5102484;28;20032;-77
2023/06/01 07:42:20;;;;;;;43.42;24.55;;;;;;;12.17;100.00;101559.41;5079246;28;20032;-77
2023/06/01 07:44:46;;;;;;;38.63;24.27;;;;;;;12.19;100.00;101552.19;5066697;28;20024;-77
2023/06/01 07:47:12;;;;;;;42.42;23.83;;;;;;;12.30;100.00;101556.56;5088272;28;20028;-77
2023/06/01 07:49:38;;;;;;;41.75;23.00;;;;;;;12.42;100.00;101557.38;5071104;28;20035;-77
2023/06/01 07:52:05;;;;;;;40.05;23.40;;;;;;;12.57;100.00;101551.72;5100987;28;20032;-77
2023/06/01 07:54:32;;;;;;;43.80;23.40;;;;;;;12.69;100.00;101547.19;5074433;28;20032;-77
2023/06/01 07:56:58;;;;;;;35.42;21.90;;;;;;;12.82;100.00;101553.13;5071869;28;20031;-77
2023/06/01 07:59:24;;;;;;;38.70;23.55;;;;;;;12.84;100.00;101553.00;5089522;28;20055;-77
2023/06/01 08:01:51;;;;;;;41.20;24.83;;;;;;;12.93;100.00;101551.38;5079799;28;20040;-77
2023/06/01 08:04:21;;;;;;;42.67;25.05;;;;;;;13.07;100.00;101547.53;5088601;28;20365;-77
2023/06/01 08:06:48;;;;;;;35.80;24.60;;;;;;;13.19;100.00;101553.56;5068417;28;20058;-77
2023/06/01 08:09:14;;;;;;;38.22;25.20;;;;;;;13.33;100.00;101555.03;5080836;28;20072;-77
2023/06/01 08:11:39;;;;;;;38.17;26.35;;;;;;;13.45;100.00;101550.44;5075709;28;20415;-77
2023/06/01 08:14:08;;;;;;;35.70;24.85;;;;;;;13.67;100.00;101551.19;5092114;28;20036;-77
2023/06/01 08:16:34;;;;;;;36.40;23.98;;;;;;;13.83;100.00;101550.66;5080137;28;20040;-77
2023/06/01 08:19:00;;;;;;;34.70;24.55;;;;;;;13.96;100.00;101543.28;5081813;28;20123;-77
2023/06/01 08:21:26;;;;;;;30.83;22.05;;;;;;;14.21;100.00;101541.03;5089126;28;20092;-77
2023/06/01 08:23:55;;;;;;;36.20;23.95;;;;;;;14.38;100.00;101539.44;5091606;28;20163;-77
2023/06/01 08:26:22;;;;;;;28.77;20.80;;;;;;;14.62;100.00;101543.47;5088551;28;20104;-77
2023/06/01 08:28:51;;;;;;;28.08;19.50;;;;;;;14.73;100.00;101538.97;5085842;28;20456;-77
2023/06/01 08:31:22;;;;;;;28.00;20.00;;;;;;;14.85;100.00;101535.16;5090039;28;20036;-77
2023/06/01 08:33:49;;;;;;;29.67;20.23;;;;;;;15.06;100.00;101539.44;5083594;28;20089;-77
2023/06/01 08:36:15;;;;;;;27.27;20.75;;;;;;;15.17;100.00;101532.22;5067348;28;20173;-77
2023/06/01 08:38:41;;;;;;;24.23;17.15;;;;;;;15.12;100.00;101530.00;5066972;28;20037;-77
2023/06/01 08:41:20;;;;;;;24.75;19.02;;;;;;;15.16;100.00;101533.22;5067635;28;20061;-77
2023/06/01 08:43:55;;;;;;;25.42;17.98;;;;;;;15.23;100.00;101531.63;5070990;28;20993;-76
2023/06/01 08:46:22;;;;;;;22.42;17.05;;;;;;;15.27;100.00;101530.38;5085734;28;20547;-77
2023/06/01 08:48:53;;;;;;;25.45;17.65;;;;;;;15.36;100.00;101533.94;5086979;28;20036;-77
2023/06/01 08:51:22;;;;;;;20.60;15.15;;;;;;;15.43;100.00;101523.53;5088852;28;20076;-77
2023/06/01 08:53:49;;;;;;;21.83;14.73;;;;;;;15.41;100.00;101522.84;5055563;28;20036;-77
2023/06/01 08:56:15;;;;;;;19.73;15.80;;;;;;;15.22;100.00;101511.31;5061989;28;20036;-77
2023/06/01 08:58:42;;;;;;;18.73;14.55;;;;;;;15.21;100.00;101520.31;5086688;28;20056;-77
2023/06/01 09:01:07;;;;;;;17.67;14.80;;;;;;;15.34;100.00;101528.78;5070020;28;20040;-77
2023/06/01 09:03:33;;;;;;;24.10;14.77;;;;;;;15.57;100.00;101523.03;5072087;28;20031;-77
2023/06/01 09:05:59;;;;;;;22.35;17.83;;;;;;;15.56;100.00;101515.19;5055642;28;20027;-77
2023/06/01 09:08:24;;;;;;;25.38;16.30;;;;;;;15.73;100.00;101519.69;5089911;28;20024;-76
2023/06/01 09:10:50;;;;;;;24.48;17.73;;;;;;;15.85;100.00;101514.97;5070514;28;20035;-76
2023/06/01 09:13:37;;;;;;;18.27;13.50;;;;;;;16.01;100.00;101512.63;5090834;28;20033;-77
2023/06/01 09:16:04;;;;;;;14.25;11.48;;;;;;;16.14;100.00;101509.53;5080330;28;20059;-77
2023/06/01 09:18:30;;;;;;;14.73;9.90;;;;;;;16.27;100.00;101509.13;5091446;28;20054;-77
2023/06/01 09:21:16;;;;;;;15.43;11.13;;;;;;;16.23;100.00;101508.59;5086626;28;20027;-76
2023/06/01 09:23:42;;;;;;;20.98;12.85;;;;;;;16.16;100.00;101503.06;5087763;28;20661;-76
2023/06/01 09:26:12;;;;;;;19.67;12.20;;;;;;;16.32;100.00;101497.03;5071376;28;20066;-77
2023/06/01 09:28:58;;;;;;;17.08;10.40;;;;;;;16.42;100.00;101499.56;5077505;28;20481;-76
2023/06/01 09:31:41;;;;;;;14.82;10.98;;;;;;;16.53;100.00;101500.31;5092913;28;20035;-76
2023/06/01 09:34:09;;;;;;;9.82;8.77;;;;;;;16.63;100.00;101498.34;5074853;28;20055;-77
2023/06/01 09:36:36;;;;;;;11.65;9.48;;;;;;;16.52;100.00;101493.28;5061044;28;20622;-77
2023/06/01 09:39:10;;;;;;;11.57;10.23;;;;;;;16.50;100.00;101501.44;5073653;28;20126;-77
2023/06/01 09:41:49;;;;;;;12.70;9.43;;;;;;;16.60;100.00;101493.34;5086480;28;20024;-77
2023/06/01 09:44:26;;;;;;;19.67;11.52;;;;;;;16.72;100.00;101505.41;5083856;28;20073;-77
2023/06/01 09:47:03;;;;;;;17.42;10.98;;;;;;;16.88;100.00;101500.31;5070750;28;20039;-77
2023/06/01 09:49:34;;;;;;;11.88;8.52;;;;;;;16.94;100.00;101497.84;5084148;28;20061;-77
2023/06/01 09:52:03;;;;;;;14.25;10.88;;;;;;;16.88;100.00;101495.81;5089924;28;20028;-76
2023/06/01 09:54:31;;;;;;;14.52;8.68;;;;;;;16.82;100.00;101483.94;5080278;28;20031;-76
2023/06/01 09:56:57;;;;;;;13.88;10.80;;;;;;;16.84;100.00;101500.63;5085568;28;20045;-77
2023/06/01 09:59:25;;;;;;;16.30;11.75;;;;;;;16.88;100.00;101501.16;5082604;28;20042;-77
2023/06/01 10:01:57;;;;;;;12.13;10.93;;;;;;;16.92;100.00;101499.84;5086475;28;20095;-76
2023/06/01 10:04:26;;;;;;;17.27;11.05;;;;;;;16.91;100.00;101492.84;5070221;28;20427;-79
2023/06/01 10:06:56;;;;;;;15.30;10.20;;;;;;;16.94;100.00;101495.19;5080574;28;20034;-79
2023/06/01 10:09:24;;;;;;;12.68;11.07;;;;;;;17.04;100.00;101488.88;5084797;28;20031;-79
2023/06/01 10:11:53;;;;;;;13.38;9.57;;;;;;;17.16;100.00;101489.41;5082184;28;20023;-80
2023/06/01 10:14:24;;;;;;;15.15;9.82;;;;;;;17.15;100.00;101491.28;5083576;28;20027;-80
2023/06/01 10:16:51;;;;;;;22.02;12.68;;;;;;;17.19;100.00;101471.25;5089552;28;20680;-80
2023/06/01 10:19:19;;;;;;;15.00;11.13;;;;;;;17.30;100.00;101483.47;5050741;28;20751;-79
2023/06/01 10:21:45;;;;;;;13.23;9.27;;;;;;;17.43;100.00;101480.31;5075548;28;20031;-77
2023/06/01 10:24:16;;;;;;;14.70;9.55;;;;;;;17.52;100.00;101483.00;5074141;28;20473;-77
2023/06/01 10:27:11;;;;;;;14.85;9.68;;;;;;;17.63;100.00;101485.34;5107976;28;20477;-77
2023/06/01 10:29:38;;;;;;;11.43;9.52;;;;;;;17.61;100.00;101484.69;5068175;28;20047;-77
2023/06/01 10:32:04;;;;;;;13.15;10.60;;;;;;;17.64;100.00;101479.00;5079694;28;20020;-77
2023/06/01 10:34:38;;;;;;;13.50;8.68;;;;;;;17.79;100.00;101464.97;5072114;28;20085;-77
2023/06/01 10:37:04;;;;;;;14.15;8.32;;;;;;;17.72;100.00;101472.81;5097151;28;20032;-77
2023/06/01 10:39:31;;;;;;;14.15;8.55;;;;;;;17.72;100.00;101460.31;5075316;28;20043;-77
2023/06/01 10:42:19;;;;;;;15.20;8.63;;;;;;;17.89;100.00;101464.78;5080096;28;20077;-77
2023/06/01 10:44:47;;;;;;;10.80;8.18;;;;;;;17.96;100.00;101463.94;5052629;28;20504;-80
2023/06/01 10:47:12;;;;;;;12.77;7.78;;;;;;;17.96;100.00;101466.63;5083064;28;20118;-80
2023/06/01 10:50:01;;;;;;;11.70;8.65;;;;;;;18.01;100.00;101457.28;5080071;28;20525;-80
2023/06/01 10:52:35;;;;;;;17.60;7.15;;;;;;;18.14;100.00;101454.13;5053922;28;20123;-80
2023/06/01 10:55:11;;;;;;;13.38;7.30;;;;;;;18.22;100.00;101452.25;5085577;28;20059;-77
2023/06/01 10:57:37;;;;;;;9.73;5.68;;;;;;;18.13;100.00;101426.50;5096741;28;20032;-77
2023/06/01 11:00:26;;;;;;;9.65;6.97;;;;;;;18.18;100.00;101447.41;5065677;28;20394;-77
2023/06/01 11:02:56;;;;;;;7.70;5.60;;;;;;;18.21;100.00;101447.06;5084693;28;20020;-76
2023/06/01 11:05:48;;;;;;;10.15;5.53;;;;;;;18.30;100.00;101458.59;5067887;28;20043;-77
2023/06/01 11:08:17;;;;;;;8.23;5.78;;;;;;;18.46;100.00;101455.03;5069355;28;20031;-77
2023/06/01 11:10:58;;;;;;;13.48;6.00;;;;;;;18.67;100.00;101456.28;5076134;28;20043;-77